Nearby METAR Reports

 

KSJC - San Jose, California, USA
Distance from station: NE 14km
Updated: 08/02/2023 05:53
Clear
Clear
 Wind from calm
Wind: Calm
Temperature: 6°C
Dew Point: 3°C
Humidity: 81%
Barometer: 1027.4 hPa
Clouds: Clear
Visibility: 16 km
2023/02/08 09:53 KSJC 080953Z AUTO 00000KT 10SM CLR 06/03 A3034 RMK AO2 SLP273 T00610033
KNUQ - Moffett Nas/Mtn, California, USA
Distance from station: N 14km
Updated: 08/02/2023 05:55
Clear
Clear
 Wind from calm
Wind: Calm
Temperature: 6°C
Dew Point: 4°C
Humidity: 87%
Barometer: 1027.4 hPa
Clouds: Clear
Visibility: 16 km
2023/02/08 09:55 KNUQ 080955Z AUTO 00000KT 10SM CLR 06/04 A3034 RMK AO2
 
KPAO - Palo Alto, California, USA
Distance from station: NNW 23km
Updated: 08/02/2023 00:47
NOT Current
Clear
Clear
 Wind from SW
Wind: SW 7 km/h
Temperature: 9°C
Wind Chill: 8°C
Dew Point: 6°C
Humidity: 82%
Barometer: 1027.8 hPa
Clouds: Clear
Visibility: 16 km
2023/02/08 04:47 KPAO 080447Z 23004KT 10SM SKC 09/06 A3035 RMK LAST
KRHV - San Jose/Reid, California, USA
Distance from station: ENE 19km
Updated: 08/02/2023 01:55
NOT Current
Clear
Clear
 Wind from calm
Wind: Calm
Temperature: 9°C
Dew Point: 6°C
Humidity: 82%
Barometer: 1028.1 hPa
Clouds: Clear
Visibility: 16 km
2023/02/08 05:55 KRHV 080555Z 00000KT 10SM SKC 09/06 A3036 RMK LAST
 
KOAK - Oakland, California, USA
Distance from station: NNW 50km
Updated: 08/02/2023 05:53
Few Clouds
Few Clouds
 Wind from calm
Wind: Calm
Temperature: 7°C
Dew Point: 4°C
Humidity: 81%
Barometer: 1027.4 hPa
Clouds: Few Clouds
Visibility: 16 km
Cloud details: Few Clouds 5486 m
2023/02/08 09:53 KOAK 080953Z 00000KT 10SM FEW180 07/04 A3034 RMK AO2 SLP274 T00670044
KSQL - San Carlos Airpo, California, USA
Distance from station: NW 34km
Updated: 08/02/2023 05:55
Clear
Clear
 Wind from calm
Wind: Calm
Temperature: 7°C
Dew Point: 4°C
Humidity: 81%
Barometer: 1027.4 hPa
Clouds: Clear
Visibility: 16 km
2023/02/08 09:55 KSQL 080955Z AUTO 00000KT 10SM CLR 07/04 A3034 RMK AO2
 
KSFO - San Francisco, California, USA
Distance from station: NW 49km
Updated: 08/02/2023 05:56
Clear
Clear
 Wind from S
Wind: S 6 km/h
Temperature: 8°C
Dew Point: 6°C
Humidity: 87%
Barometer: 1027.4 hPa
Clouds: Clear
Visibility: 16 km
2023/02/08 09:56 KSFO 080956Z 19003KT 10SM CLR 08/06 A3034 RMK AO2 SLP272 T00830056
KE16 - San Martin, California, USA
Distance from station: ESE 43km
Updated: 08/02/2023 05:55
Clear
Clear
 Wind from NNE
Wind: NNE 6 km/h
Temperature: 4°C
Dew Point: 4°C
Humidity: 100%
Barometer: 1028.1 hPa
Clouds: Clear
Visibility: 16 km
2023/02/08 09:55 KE16 080955Z AUTO 02003KT 10SM CLR 04/04 A3036 RMK AO2
 
KWVI - Watsonville, California, USA
Distance from station: SSE 44km
Updated: 08/02/2023 05:53
Clear
Clear
 Wind from calm
Wind: Calm
Temperature: 6°C
Dew Point: 4°C
Humidity: 87%
Barometer: 1026.8 hPa
Clouds: Clear
Visibility: 16 km
2023/02/08 09:53 KWVI 080953Z AUTO 00000KT 10SM CLR 06/04 A3032 RMK AO2 SLP268 T00560039
KHAF - Half Moon Bay, California, USA
Distance from station: WNW 50km
Updated: 08/02/2023 05:55
Haze, Few clouds
Haze, Few clouds
 Wind from calm
Wind: Calm
Temperature: 8°C
Dew Point: 5°C
Humidity: 82%
Barometer: 1026.8 hPa
Summary: Haze
Clouds: Few Clouds
Visibility: 8 km
Cloud details: Few Clouds 61 m
2023/02/08 09:55 KHAF 080955Z AUTO 00000KT 5SM HZ FEW002 08/05 A3032 RMK AO2
 
KHWD - Hayward, California, USA
Distance from station: N 44km
Updated: 08/02/2023 05:54
Clear
Clear
 Wind from ESE
Wind: ESE 6 km/h
Temperature: 7°C
Dew Point: 4°C
Humidity: 81%
Barometer: 1027.1 hPa
Clouds: Clear
Visibility: 16 km
2023/02/08 09:54 KHWD 080954Z AUTO 11003KT 10SM CLR 07/04 A3033 RMK AO2 SLP281 T00670039
KLVK - Livermore, California, USA
Distance from station: NNE 51km
Updated: 08/02/2023 05:53
Clear
Clear
 Wind from ENE
Wind: ENE 6 km/h
Temperature: 4°C
Dew Point: 3°C
Humidity: 93%
Barometer: 1027.4 hPa
Clouds: Clear
Visibility: 16 km
2023/02/08 09:53 KLVK 080953Z AUTO 06003KT 10SM CLR 04/03 A3034 RMK AO2 SLP272 T00390028